createdAt,value
2023-05-05T00:01:30.254Z,73.59
2023-05-05T00:03:56.773Z,73.53
2023-05-05T00:06:23.275Z,73.94
2023-05-05T00:08:49.739Z,74.16
2023-05-05T00:11:16.180Z,74.03
2023-05-05T00:13:42.683Z,74.11
2023-05-05T00:16:10.326Z,74.79
2023-05-05T00:18:37.429Z,75.33
2023-05-05T00:21:04.433Z,75.99
2023-05-05T00:23:30.893Z,76.05
2023-05-05T00:25:57.282Z,76.84
2023-05-05T00:28:23.741Z,76.44
2023-05-05T00:30:50.508Z,77.38
2023-05-05T00:33:17.145Z,76.52
2023-05-05T00:35:43.561Z,76.67
2023-05-05T00:38:10.244Z,77.59
2023-05-05T00:40:38.179Z,77.78
2023-05-05T00:43:05.197Z,77.84
2023-05-05T00:45:31.851Z,78.49
2023-05-05T00:47:59.721Z,78.32
2023-05-05T00:50:29.478Z,78.09
2023-05-05T00:53:02.159Z,78.50
2023-05-05T00:55:29.787Z,78.20
2023-05-05T00:57:57.961Z,78.05
2023-05-05T01:00:24.746Z,78.92
2023-05-05T01:02:52.633Z,79.02
2023-05-05T01:05:20.151Z,78.75
2023-05-05T01:07:54.109Z,79.49
2023-05-05T01:10:48.764Z,79.26
2023-05-05T01:13:31.798Z,80.15
2023-05-05T01:16:07.546Z,80.27
2023-05-05T01:18:45.840Z,79.92
2023-05-05T01:21:23.437Z,79.90
2023-05-05T01:24:06.556Z,80.22
2023-05-05T01:26:55.792Z,80.34
2023-05-05T01:30:05.557Z,81.49
2023-05-05T01:32:37.891Z,81.38
2023-05-05T01:35:13.382Z,81.37
2023-05-05T01:38:05.542Z,81.96
2023-05-05T01:40:36.765Z,81.96
2023-05-05T01:43:03.766Z,81.89
2023-05-05T01:45:33.706Z,82.07
2023-05-05T01:48:01.066Z,82.78
2023-05-05T01:50:28.831Z,82.97
2023-05-05T01:52:56.513Z,82.70
2023-05-05T01:55:25.523Z,82.43
2023-05-05T01:57:53.290Z,82.73
2023-05-05T02:00:20.072Z,82.70
2023-05-05T02:02:48.070Z,83.92
2023-05-05T02:05:16.517Z,82.78
2023-05-05T02:07:43.544Z,83.43
2023-05-05T02:10:10.693Z,82.91
2023-05-05T02:12:39.694Z,83.52
2023-05-05T02:15:06.879Z,83.09
2023-05-05T02:17:34.877Z,83.09
2023-05-05T02:20:02.062Z,83.31
2023-05-05T02:22:28.716Z,83.54
2023-05-05T02:24:55.411Z,83.76
2023-05-05T02:27:23.137Z,84.00
2023-05-05T02:29:56.602Z,84.12
2023-05-05T02:32:35.252Z,84.24
2023-05-05T02:35:09.496Z,84.10
2023-05-05T02:37:36.274Z,83.83
2023-05-05T02:40:05.271Z,84.35
2023-05-05T02:42:43.307Z,83.80
2023-05-05T02:45:15.806Z,84.19
2023-05-05T02:47:42.283Z,84.15
2023-05-05T02:50:09.526Z,84.92
2023-05-05T02:52:36.523Z,84.14
2023-05-05T02:55:04.306Z,83.73
2023-05-05T02:58:00.916Z,83.89
2023-05-05T03:00:34.345Z,84.21
2023-05-05T03:03:27.131Z,83.93
2023-05-05T03:06:11.848Z,84.29
2023-05-05T03:08:50.634Z,84.63
2023-05-05T03:11:38.821Z,84.40
2023-05-05T03:14:18.212Z,83.95
2023-05-05T03:16:45.838Z,84.89
2023-05-05T03:19:14.641Z,84.34
2023-05-05T03:21:41.708Z,84.09
2023-05-05T03:24:15.703Z,84.01
2023-05-05T03:26:43.175Z,83.97
2023-05-05T03:29:09.869Z,83.30
2023-05-05T03:31:36.541Z,83.94
2023-05-05T03:34:03.109Z,83.64
2023-05-05T03:36:29.949Z,83.34
2023-05-05T03:38:58.120Z,83.58
2023-05-05T03:41:24.928Z,84.12
2023-05-05T03:43:51.679Z,84.24
2023-05-05T03:46:18.322Z,83.99
2023-05-05T03:48:46.157Z,83.98
2023-05-05T03:51:13.269Z,83.77
2023-05-05T03:53:39.779Z,83.61
2023-05-05T03:56:06.409Z,84.41
2023-05-05T03:58:33.066Z,84.09
2023-05-05T04:00:59.514Z,83.68
2023-05-05T04:03:26.164Z,84.45
2023-05-05T04:05:52.949Z,84.62
2023-05-05T04:08:19.428Z,84.69
2023-05-05T04:10:46.900Z,84.07
2023-05-05T04:13:13.375Z,83.94
2023-05-05T04:15:44.823Z,84.16
2023-05-05T04:18:11.379Z,84.36
2023-05-05T04:20:37.912Z,83.72
2023-05-05T04:23:04.460Z,83.80
2023-05-05T04:25:31.071Z,83.61
2023-05-05T04:27:57.651Z,83.59
2023-05-05T04:30:24.100Z,83.11
2023-05-05T04:32:50.544Z,82.14
2023-05-05T04:35:17.294Z,81.66
2023-05-05T04:37:45.161Z,81.18
2023-05-05T04:40:13.744Z,80.39
2023-05-05T04:42:42.219Z,80.41
2023-05-05T04:45:09.090Z,80.03
2023-05-05T04:47:40.951Z,79.13
2023-05-05T04:50:08.370Z,79.05
2023-05-05T04:52:35.032Z,78.28
2023-05-05T04:55:01.491Z,78.36
2023-05-05T04:57:29.605Z,77.34
2023-05-05T04:59:56.243Z,76.46
2023-05-05T05:02:23.717Z,75.51
2023-05-05T05:04:50.312Z,75.25
2023-05-05T05:07:16.817Z,73.86
2023-05-05T05:09:44.343Z,72.81
2023-05-05T05:12:10.828Z,73.24
2023-05-05T05:14:38.153Z,73.07
2023-05-05T05:17:05.674Z,72.15
2023-05-05T05:19:32.284Z,71.02
2023-05-05T05:21:58.746Z,71.43
2023-05-05T05:24:25.316Z,70.90
2023-05-05T05:26:51.830Z,71.20
2023-05-05T05:29:20.030Z,71.24
2023-05-05T05:31:46.554Z,70.25
2023-05-05T05:34:13.080Z,69.19
2023-05-05T05:36:39.597Z,65.79
2023-05-05T05:39:06.354Z,63.39
2023-05-05T05:41:32.779Z,59.46
2023-05-05T05:44:00.407Z,53.98
2023-05-05T05:46:26.833Z,56.23
2023-05-05T05:48:53.312Z,56.23
2023-05-05T05:51:19.745Z,53.56
2023-05-05T05:53:46.184Z,52.06
2023-05-05T05:56:12.644Z,52.42
2023-05-05T05:58:39.212Z,51.36
2023-05-05T06:01:05.770Z,51.97
2023-05-05T06:03:32.684Z,50.66
2023-05-05T06:05:59.212Z,48.80
2023-05-05T06:08:26.800Z,47.92
2023-05-05T06:10:53.223Z,45.86
2023-05-05T06:13:19.641Z,41.41
2023-05-05T06:15:46.239Z,40.57
2023-05-05T06:18:13.815Z,41.02
2023-05-05T06:20:40.321Z,41.36
2023-05-05T06:23:06.961Z,39.61
2023-05-05T06:25:33.394Z,38.21
2023-05-05T06:28:00.114Z,36.36
2023-05-05T06:30:26.851Z,38.32
2023-05-05T06:32:54.251Z,38.85
2023-05-05T06:35:22.354Z,36.83
2023-05-05T06:37:48.842Z,39.01
2023-05-05T06:40:15.357Z,36.57
2023-05-05T06:42:41.844Z,34.11
2023-05-05T06:45:09.162Z,34.05
2023-05-05T06:47:36.300Z,34.37
2023-05-05T06:50:02.776Z,35.66
2023-05-05T06:52:29.243Z,33.52
2023-05-05T06:54:55.749Z,31.00
2023-05-05T06:57:22.082Z,33.17
2023-05-05T06:59:48.628Z,28.88
2023-05-05T07:02:15.147Z,31.63
2023-05-05T07:04:42.496Z,31.27
2023-05-05T07:07:09.085Z,29.44
2023-05-05T07:09:35.558Z,28.94
2023-05-05T07:12:02.022Z,30.01
2023-05-05T07:14:28.430Z,29.78
2023-05-05T07:16:55.014Z,31.74
2023-05-05T07:19:22.203Z,32.39
2023-05-05T07:21:48.614Z,31.78
2023-05-05T07:24:16.167Z,29.86
2023-05-05T07:26:42.656Z,29.17
2023-05-05T07:29:09.167Z,28.40
2023-05-05T07:31:35.807Z,29.13
2023-05-05T07:34:02.219Z,30.43
2023-05-05T07:36:28.683Z,28.43
2023-05-05T07:38:55.355Z,26.96
2023-05-05T07:41:22.110Z,27.25
2023-05-05T07:43:48.556Z,27.33
2023-05-05T07:46:15.234Z,27.76
2023-05-05T07:48:41.982Z,27.76
2023-05-05T07:51:09.230Z,26.74
2023-05-05T07:53:35.750Z,27.19
2023-05-05T07:56:02.247Z,26.01
2023-05-05T07:58:28.971Z,27.08
2023-05-05T08:00:56.289Z,24.07
2023-05-05T08:03:24.904Z,23.14
2023-05-05T08:05:54.398Z,22.71
2023-05-05T08:08:24.498Z,23.92
2023-05-05T08:10:51.934Z,22.23
2023-05-05T08:13:18.589Z,23.53
2023-05-05T08:15:45.502Z,24.88
2023-05-05T08:18:12.061Z,24.14
2023-05-05T08:20:38.643Z,25.94
2023-05-05T08:23:05.241Z,25.50
2023-05-05T08:25:31.772Z,25.70
2023-05-05T08:27:58.197Z,24.29
2023-05-05T08:30:24.611Z,24.27
2023-05-05T08:32:52.156Z,23.05
2023-05-05T08:35:24.520Z,21.81
2023-05-05T08:37:52.055Z,22.22
2023-05-05T08:40:20.897Z,24.66
2023-05-05T08:42:47.858Z,22.27
2023-05-05T08:45:14.651Z,25.21
2023-05-05T08:47:43.126Z,25.19
2023-05-05T08:50:10.410Z,25.13
2023-05-05T08:52:41.984Z,23.45
2023-05-05T08:55:25.516Z,25.03
2023-05-05T08:57:57.037Z,26.43
2023-05-05T09:00:24.339Z,25.87
2023-05-05T09:02:59.319Z,25.21
2023-05-05T09:05:29.602Z,25.31
2023-05-05T09:08:01.773Z,24.06
2023-05-05T09:10:31.585Z,23.60
2023-05-05T09:12:58.140Z,24.11
2023-05-05T09:15:28.406Z,22.73
2023-05-05T09:17:57.045Z,23.25
2023-05-05T09:20:24.841Z,23.84
2023-05-05T09:22:53.123Z,22.69
2023-05-05T09:25:19.594Z,22.22
2023-05-05T09:27:48.161Z,24.04
2023-05-05T09:30:17.285Z,22.86
2023-05-05T09:32:47.798Z,22.25
2023-05-05T09:35:15.246Z,20.56
2023-05-05T09:37:42.130Z,20.12
2023-05-05T09:40:09.592Z,19.60
2023-05-05T09:42:37.829Z,20.11
2023-05-05T09:45:25.614Z,19.51
2023-05-05T09:47:54.805Z,21.86
2023-05-05T09:50:25.897Z,22.77
2023-05-05T09:52:56.055Z,22.46
2023-05-05T09:55:23.746Z,22.22
2023-05-05T09:57:50.504Z,22.58
2023-05-05T10:00:17.737Z,21.34
2023-05-05T10:02:44.595Z,21.23
2023-05-05T10:05:18.623Z,20.58
2023-05-05T10:07:47.372Z,20.98
2023-05-05T10:10:16.093Z,20.45
2023-05-05T10:12:43.065Z,19.89
2023-05-05T10:15:11.247Z,21.74
2023-05-05T10:18:05.316Z,21.42
2023-05-05T10:20:36.415Z,21.58
2023-05-05T10:23:06.123Z,23.58
2023-05-05T10:25:39.606Z,23.32
2023-05-05T10:28:06.943Z,23.81
2023-05-05T10:30:37.209Z,23.09
2023-05-05T10:33:30.298Z,23.25
2023-05-05T10:36:01.462Z,21.64
2023-05-05T10:38:30.898Z,22.29
2023-05-05T10:40:58.413Z,23.35
2023-05-05T10:43:25.088Z,24.32
2023-05-05T10:45:51.900Z,24.33
2023-05-05T10:48:27.519Z,22.63
2023-05-05T10:51:02.152Z,22.32
2023-05-05T10:53:32.768Z,23.70
2023-05-05T10:56:26.633Z,24.61
2023-05-05T10:59:00.042Z,24.44
2023-05-05T11:01:32.642Z,23.02
2023-05-05T11:04:18.259Z,22.25
2023-05-05T11:07:14.300Z,21.98
2023-05-05T11:09:58.936Z,21.69
2023-05-05T11:12:25.739Z,22.27
2023-05-05T11:15:26.515Z,21.02
2023-05-05T11:18:05.846Z,21.79
2023-05-05T11:20:40.119Z,22.21
2023-05-05T11:23:06.748Z,21.97
2023-05-05T11:25:36.755Z,22.64
2023-05-05T11:28:31.399Z,23.25
2023-05-05T11:31:01.060Z,23.30
2023-05-05T11:33:38.423Z,23.09
2023-05-05T11:36:15.324Z,23.57
2023-05-05T11:38:48.709Z,23.89
2023-05-05T11:41:30.601Z,23.37
2023-05-05T11:44:12.811Z,23.59
2023-05-05T11:46:41.192Z,24.31
2023-05-05T11:49:09.218Z,24.31
2023-05-05T11:51:35.902Z,23.03
2023-05-05T11:54:02.507Z,23.65
2023-05-05T11:56:28.980Z,23.64
2023-05-05T11:59:08.012Z,22.97
2023-05-05T12:01:35.059Z,23.19
2023-05-05T12:04:01.906Z,24.61
2023-05-05T12:06:33.191Z,22.99
2023-05-05T12:09:00.683Z,22.89
2023-05-05T12:11:27.509Z,24.08
2023-05-05T12:14:12.179Z,23.10
2023-05-05T12:16:38.931Z,23.64
2023-05-05T12:19:10.446Z,22.71
2023-05-05T12:21:38.261Z,23.51
2023-05-05T12:24:05.169Z,23.10
2023-05-05T12:26:32.347Z,23.89
2023-05-05T12:29:00.125Z,23.87
2023-05-05T12:31:41.349Z,23.91
2023-05-05T12:34:09.958Z,24.35
2023-05-05T12:36:36.975Z,24.50
2023-05-05T12:39:07.290Z,25.31
2023-05-05T12:41:34.730Z,24.68
2023-05-05T12:44:03.073Z,25.13
2023-05-05T12:46:30.968Z,24.85
2023-05-05T12:49:05.653Z,25.06
2023-05-05T12:51:36.006Z,24.88
2023-05-05T12:54:09.818Z,24.57
2023-05-05T12:56:43.925Z,24.90
2023-05-05T12:59:12.237Z,23.84
2023-05-05T13:01:52.759Z,23.90
2023-05-05T13:04:20.950Z,24.77
2023-05-05T13:06:49.110Z,24.35
2023-05-05T13:09:23.689Z,24.52
2023-05-05T13:11:50.230Z,24.93
2023-05-05T13:14:17.701Z,25.09
2023-05-05T13:16:47.247Z,24.80
2023-05-05T13:19:15.881Z,24.37
2023-05-05T13:21:42.818Z,24.19
2023-05-05T13:24:21.396Z,23.12
2023-05-05T13:26:53.317Z,24.03
2023-05-05T13:29:19.924Z,24.65
2023-05-05T13:31:46.454Z,24.04
2023-05-05T13:34:12.921Z,25.16
2023-05-05T13:36:39.473Z,24.62
2023-05-05T13:39:06.098Z,24.34
2023-05-05T13:41:32.524Z,24.59
2023-05-05T13:44:00.000Z,25.90
2023-05-05T13:46:26.901Z,24.92
2023-05-05T13:48:56.689Z,24.63
2023-05-05T13:51:23.354Z,24.39
2023-05-05T13:53:49.819Z,24.20
2023-05-05T13:56:18.071Z,24.02
2023-05-05T13:58:44.761Z,24.46
2023-05-05T14:01:11.365Z,23.41
2023-05-05T14:03:39.491Z,24.22
2023-05-05T14:06:07.458Z,23.45
2023-05-05T14:08:34.210Z,22.67
2023-05-05T14:11:01.824Z,23.15
2023-05-05T14:13:28.418Z,23.58
2023-05-05T14:15:55.100Z,22.95
2023-05-05T14:18:22.728Z,23.55
2023-05-05T14:20:49.076Z,25.02
2023-05-05T14:23:15.865Z,23.94
2023-05-05T14:25:42.704Z,24.09
2023-05-05T14:28:09.254Z,24.40
2023-05-05T14:30:36.759Z,25.70
2023-05-05T14:33:03.645Z,25.95
2023-05-05T14:35:31.449Z,26.47
2023-05-05T14:37:57.883Z,25.29
2023-05-05T14:40:24.393Z,26.08
2023-05-05T14:42:51.036Z,26.31
2023-05-05T14:45:17.536Z,25.71
2023-05-05T14:47:43.981Z,26.11
2023-05-05T14:50:11.683Z,26.44
2023-05-05T14:52:40.334Z,26.47
2023-05-05T14:55:07.752Z,26.51
2023-05-05T14:57:38.007Z,26.71
2023-05-05T15:00:07.979Z,27.25
2023-05-05T15:02:34.945Z,26.73
2023-05-05T15:05:03.697Z,27.00
2023-05-05T15:07:30.386Z,27.39
2023-05-05T15:09:57.014Z,26.94
2023-05-05T15:12:23.947Z,27.06
2023-05-05T15:14:50.500Z,26.96
2023-05-05T15:17:18.320Z,26.90
2023-05-05T15:19:44.798Z,27.15
2023-05-05T15:22:11.302Z,27.36
2023-05-05T15:24:38.142Z,27.01
2023-05-05T15:27:04.636Z,27.60
2023-05-05T15:29:31.323Z,27.13
2023-05-05T15:31:57.859Z,26.43
2023-05-05T15:34:26.200Z,27.52
2023-05-05T15:36:53.995Z,27.64
2023-05-05T15:39:20.485Z,27.99
2023-05-05T15:41:48.529Z,26.36
2023-05-05T15:44:14.964Z,27.30
2023-05-05T15:46:41.587Z,26.85
2023-05-05T15:49:08.231Z,27.56
2023-05-05T15:51:34.677Z,27.32
2023-05-05T15:54:01.554Z,27.46
2023-05-05T15:56:29.137Z,27.67
2023-05-05T15:58:56.631Z,27.10
2023-05-05T16:01:23.287Z,27.38
2023-05-05T16:03:49.790Z,27.13
2023-05-05T16:06:16.271Z,27.05
2023-05-05T16:08:42.754Z,27.47
2023-05-05T16:11:09.307Z,27.32
2023-05-05T16:13:35.892Z,27.25
2023-05-05T16:16:02.355Z,26.94
2023-05-05T16:18:28.947Z,26.36
2023-05-05T16:20:55.634Z,27.21
2023-05-05T16:23:22.096Z,27.57
2023-05-05T16:25:48.634Z,27.62
2023-05-05T16:28:15.040Z,27.32
2023-05-05T16:30:43.062Z,27.47
2023-05-05T16:33:10.787Z,28.36
2023-05-05T16:35:37.320Z,27.87
2023-05-05T16:38:03.766Z,28.65
2023-05-05T16:40:30.474Z,27.86
2023-05-05T16:42:56.909Z,27.56
2023-05-05T16:45:24.319Z,28.29
2023-05-05T16:47:51.131Z,28.12
2023-05-05T16:50:17.774Z,28.18
2023-05-05T16:52:45.295Z,28.47
2023-05-05T16:55:12.037Z,27.90
2023-05-05T16:57:38.582Z,28.66
2023-05-05T17:00:08.541Z,28.51
2023-05-05T17:02:35.782Z,28.96
2023-05-05T17:05:02.653Z,29.51
2023-05-05T17:07:29.281Z,29.59
2023-05-05T17:09:55.765Z,29.48
2023-05-05T17:12:22.233Z,30.49
2023-05-05T17:14:48.717Z,30.14
2023-05-05T17:17:15.474Z,30.67
2023-05-05T17:19:42.942Z,30.80
2023-05-05T17:22:09.440Z,30.55
2023-05-05T17:24:36.335Z,30.96
2023-05-05T17:27:02.768Z,31.08
2023-05-05T17:29:29.272Z,31.21
2023-05-05T17:31:55.809Z,31.07
2023-05-05T17:34:22.281Z,31.59
2023-05-05T17:36:48.691Z,31.75
2023-05-05T17:39:16.328Z,32.00
2023-05-05T17:41:42.847Z,31.22
2023-05-05T17:44:11.370Z,31.65
2023-05-05T17:46:38.226Z,31.69
2023-05-05T17:49:04.966Z,31.56
2023-05-05T17:51:31.700Z,31.97
2023-05-05T17:53:58.136Z,32.17
2023-05-05T17:56:24.562Z,32.26
2023-05-05T17:58:51.305Z,33.04
2023-05-05T18:01:25.480Z,33.22
2023-05-05T18:03:52.417Z,33.71
2023-05-05T18:06:19.227Z,34.89
2023-05-05T18:08:45.748Z,35.46
2023-05-05T18:11:12.345Z,37.02
2023-05-05T18:13:39.481Z,37.60
2023-05-05T18:16:06.451Z,37.99
2023-05-05T18:18:33.029Z,38.96
2023-05-05T18:20:59.502Z,39.21
2023-05-05T18:23:26.072Z,39.82
2023-05-05T18:25:52.540Z,40.15
2023-05-05T18:28:19.211Z,40.33
2023-05-05T18:30:45.913Z,40.28
2023-05-05T18:33:12.548Z,40.29
2023-05-05T18:35:39.120Z,40.90
2023-05-05T18:38:05.836Z,41.02
2023-05-05T18:40:32.264Z,40.91
2023-05-05T18:42:58.866Z,41.49
2023-05-05T18:45:25.491Z,41.15
2023-05-05T18:47:52.120Z,41.27
2023-05-05T18:50:18.840Z,41.41
2023-05-05T18:52:45.824Z,41.36
2023-05-05T18:55:12.556Z,42.08
2023-05-05T18:57:39.188Z,41.64
2023-05-05T19:00:06.243Z,42.00
2023-05-05T19:02:32.739Z,42.62
2023-05-05T19:04:59.438Z,41.92
2023-05-05T19:07:35.097Z,42.70
2023-05-05T19:10:04.415Z,42.15
2023-05-05T19:12:31.129Z,41.94
2023-05-05T19:14:58.121Z,42.45
2023-05-05T19:17:25.648Z,41.78
2023-05-05T19:19:53.892Z,41.42
2023-05-05T19:22:23.956Z,40.95
2023-05-05T19:24:51.064Z,41.71
2023-05-05T19:27:20.294Z,40.45
2023-05-05T19:29:52.108Z,40.44
2023-05-05T19:32:21.025Z,41.29
2023-05-05T19:34:48.096Z,40.76
2023-05-05T19:37:14.783Z,41.34
2023-05-05T19:39:44.395Z,41.30
2023-05-05T19:42:12.020Z,41.64
2023-05-05T19:44:38.829Z,41.76
2023-05-05T19:47:05.748Z,42.01
2023-05-05T19:49:34.680Z,41.85
2023-05-05T19:52:04.159Z,41.93
2023-05-05T19:54:30.813Z,42.75
2023-05-05T19:56:57.749Z,42.21
2023-05-05T19:59:24.517Z,42.31
2023-05-05T20:01:51.602Z,41.93
2023-05-05T20:04:18.513Z,41.96
2023-05-05T20:06:45.372Z,42.28
2023-05-05T20:09:13.814Z,41.86
2023-05-05T20:11:40.584Z,42.27
2023-05-05T20:14:08.453Z,42.45
2023-05-05T20:16:36.594Z,42.58
2023-05-05T20:19:05.269Z,42.23
2023-05-05T20:21:32.403Z,42.54
2023-05-05T20:23:59.665Z,42.85
2023-05-05T20:26:26.552Z,42.78
2023-05-05T20:28:53.021Z,42.51
2023-05-05T20:31:19.536Z,43.43
2023-05-05T20:33:46.220Z,43.37
2023-05-05T20:36:12.736Z,43.88
2023-05-05T20:38:39.228Z,43.30
2023-05-05T20:41:06.276Z,44.76
2023-05-05T20:43:32.689Z,44.74
2023-05-05T20:45:59.158Z,44.73
2023-05-05T20:48:25.738Z,45.58
2023-05-05T20:50:52.297Z,46.29
2023-05-05T20:53:19.193Z,44.75
2023-05-05T20:55:47.463Z,44.97
2023-05-05T20:58:13.994Z,44.83
2023-05-05T21:00:40.819Z,45.56
2023-05-05T21:03:07.525Z,45.13
2023-05-05T21:05:35.518Z,45.46
2023-05-05T21:08:02.018Z,45.39
2023-05-05T21:10:29.260Z,45.86
2023-05-05T21:12:55.749Z,46.49
2023-05-05T21:15:22.642Z,46.75
2023-05-05T21:17:49.196Z,46.67
2023-05-05T21:20:16.549Z,47.05
2023-05-05T21:22:43.011Z,47.06
2023-05-05T21:25:18.668Z,47.46
2023-05-05T21:27:47.003Z,47.41
2023-05-05T21:30:13.938Z,48.02
2023-05-05T21:32:41.101Z,47.54
2023-05-05T21:35:08.603Z,48.64
2023-05-05T21:37:37.248Z,48.10
2023-05-05T21:40:06.365Z,48.66
2023-05-05T21:42:33.105Z,48.65
2023-05-05T21:44:59.515Z,49.12
2023-05-05T21:47:26.796Z,48.92
2023-05-05T21:49:54.200Z,48.69
2023-05-05T21:52:20.860Z,48.81
2023-05-05T21:54:47.338Z,49.04
2023-05-05T21:57:13.841Z,49.00
2023-05-05T21:59:41.201Z,49.12
2023-05-05T22:02:17.671Z,49.10
2023-05-05T22:04:48.388Z,49.41
2023-05-05T22:07:15.123Z,49.11
2023-05-05T22:09:41.850Z,49.79
2023-05-05T22:12:08.340Z,49.03
2023-05-05T22:14:34.829Z,49.57
2023-05-05T22:17:01.327Z,49.62
2023-05-05T22:19:28.289Z,50.68
2023-05-05T22:21:54.926Z,51.37
2023-05-05T22:24:21.426Z,51.22
2023-05-05T22:26:47.960Z,51.87
2023-05-05T22:29:14.450Z,52.49
2023-05-05T22:31:41.092Z,52.36
2023-05-05T22:34:07.959Z,52.68
2023-05-05T22:36:34.449Z,53.37
2023-05-05T22:39:00.968Z,52.65
2023-05-05T22:41:27.377Z,54.32
2023-05-05T22:43:53.984Z,55.40
2023-05-05T22:46:21.473Z,56.66
2023-05-05T22:48:49.039Z,58.25
2023-05-05T22:51:15.641Z,60.80
2023-05-05T22:53:43.276Z,63.16
2023-05-05T22:56:09.866Z,67.43
2023-05-05T22:58:37.332Z,68.83
2023-05-05T23:01:03.919Z,71.34
2023-05-05T23:03:31.487Z,75.68
2023-05-05T23:05:58.106Z,79.02
2023-05-05T23:08:24.861Z,80.10
2023-05-05T23:10:51.368Z,82.14
2023-05-05T23:13:18.547Z,83.58
2023-05-05T23:15:45.694Z,84.72
2023-05-05T23:18:12.293Z,87.19
2023-05-05T23:20:39.191Z,87.80
2023-05-05T23:23:05.933Z,89.06
2023-05-05T23:25:32.553Z,90.05
2023-05-05T23:27:59.341Z,90.32
2023-05-05T23:30:26.123Z,91.15
2023-05-05T23:32:54.363Z,91.08
2023-05-05T23:35:22.242Z,92.95
2023-05-05T23:37:49.437Z,92.24
2023-05-05T23:40:16.565Z,92.13
2023-05-05T23:42:44.221Z,92.63
2023-05-05T23:45:11.751Z,93.78
2023-05-05T23:47:38.997Z,93.68
2023-05-05T23:50:06.655Z,94.59
2023-05-05T23:52:34.135Z,88.85
2023-05-05T23:55:00.679Z,86.61
2023-05-05T23:57:28.915Z,89.81
2023-05-05T23:59:55.764Z,91.12
